GOOY/DKR METAR and TAF weather

Enter ICAO airport designator
Station Type Date Time Source
GOOY METAR 2019/12/06 14:00 UTC NOAA

GOOY 061400Z 04018KT 9999 FEW010 25/16 Q1013


Station Type Date Time Source
GOOY Decoded METAR 2019/12/06 14:00 UTC NOAA

Dakar / Yoff, Senegal (GOOY) 14-44N 017-30W 24M
Dec 06, 2019 - 09:00 AM EST / 2019.12.06 1400 UTC
Wind: from the NE (040 degrees) at 21 MPH (18 KT):0
Visibility: greater than 7 mile(s):0
Sky conditions: mostly clear
Temperature: 77 F (25 C)
Dew Point: 60 F (16 C)
Relative Humidity: 57%
Pressure (altimeter): 29.91 in. Hg (1013 hPa)
ob: GOOY 061400Z 04018KT 9999 FEW010 25/16 Q1013
cycle: 14

Station Type Date Time Source
GOOY TAF 2019/12/06 12:53 UTC NOAA

TAF GOOY 061130Z 0612/0718 36012KT CAVOK

Example: see airport list